Time;durP1;ratioP1;P1;durP2;ratioP2;P2;SDS_P1;SDS_P2;PMS_P1;PMS_P2;Temp;Humidity;BMP_temperature;BMP_pressure;BME280_temperature;BME280_humidity;BME280_pressure;Samples;Min_cycle;Max_cycle;Signal;HPM_P1;HPM_P2
2022/05/20 00:02:25;;;;;;;8.13;3.50;;;14.10;99.90;;;;;;5069334;28;20461;-63
2022/05/20 00:04:52;;;;;;;7.30;3.50;;;14.20;99.90;;;;;;5069272;28;20464;-63
2022/05/20 00:07:19;;;;;;;7.00;2.93;;;14.30;99.90;;;;;;5069790;28;20445;-63
2022/05/20 00:09:47;;;;;;;6.40;3.97;;;14.20;99.90;;;;;;5069542;28;20806;-62
2022/05/20 00:12:14;;;;;;;7.37;3.40;;;14.20;99.90;;;;;;5069371;28;20479;-63
2022/05/20 00:14:41;;;;;;;8.03;4.10;;;14.30;99.90;;;;;;5069307;28;20452;-62
2022/05/20 00:17:08;;;;;;;6.50;3.37;;;14.30;99.90;;;;;;5051506;28;20821;-64
2022/05/20 00:19:35;;;;;;;6.77;3.70;;;14.30;99.90;;;;;;5049127;28;20540;-64
2022/05/20 00:22:05;;;;;;;9.07;4.37;;;14.40;99.90;;;;;;5048621;28;20473;-63
2022/05/20 00:24:32;;;;;;;6.77;3.90;;;14.50;99.90;;;;;;5048983;28;20450;-63
2022/05/20 00:27:01;;;;;;;7.23;4.07;;;14.50;99.90;;;;;;5049131;28;20472;-63
2022/05/20 00:29:28;;;;;;;7.43;3.77;;;14.40;99.90;;;;;;5048909;28;20449;-63
2022/05/20 00:31:55;;;;;;;9.30;4.03;;;14.30;99.90;;;;;;5049233;28;20505;-63
2022/05/20 00:34:22;;;;;;;7.60;4.10;;;14.20;99.90;;;;;;5048988;28;21030;-63
2022/05/20 00:36:49;;;;;;;9.53;3.77;;;14.20;99.90;;;;;;5052285;28;20497;-63
2022/05/20 00:39:17;;;;;;;7.80;3.73;;;14.20;99.90;;;;;;5072914;28;20460;-64
2022/05/20 00:41:44;;;;;;;8.53;3.00;;;14.20;99.90;;;;;;5072523;28;20492;-61
2022/05/20 00:44:12;;;;;;;7.93;4.07;;;14.30;99.90;;;;;;5073177;28;20451;-62
2022/05/20 00:46:39;;;;;;;6.40;3.90;;;14.20;99.90;;;;;;5072956;28;20449;-61
2022/05/20 00:49:10;;;;;;;5.77;3.40;;;14.20;99.90;;;;;;5072752;28;20540;-63
2022/05/20 00:51:40;;;;;;;8.83;4.10;;;14.20;99.90;;;;;;5072687;28;21000;-62
2022/05/20 00:54:11;;;;;;;10.30;4.60;;;14.20;99.90;;;;;;5072889;28;20449;-63
2022/05/20 00:56:42;;;;;;;9.03;4.37;;;14.10;99.90;;;;;;5072686;28;20865;-62
2022/05/20 00:59:16;;;;;;;8.60;3.73;;;14.00;99.90;;;;;;5072122;28;20459;-62
2022/05/20 01:01:45;;;;;;;8.80;4.60;;;13.90;99.90;;;;;;5072202;28;20972;-62
2022/05/20 01:04:12;;;;;;;8.03;3.73;;;13.90;99.90;;;;;;5072746;28;20457;-63
2022/05/20 01:06:40;;;;;;;5.37;3.60;;;13.90;99.90;;;;;;5072657;28;20453;-64
2022/05/20 01:09:07;;;;;;;5.37;3.00;;;13.90;99.90;;;;;;5072278;28;20441;-62
2022/05/20 01:11:36;;;;;;;6.17;3.13;;;13.90;99.90;;;;;;5072737;28;20486;-63
2022/05/20 01:14:03;;;;;;;6.27;4.00;;;14.10;99.90;;;;;;5072183;28;20467;-62
2022/05/20 01:16:33;;;;;;;6.13;3.57;;;14.20;99.90;;;;;;5071978;28;20992;-63
2022/05/20 01:19:01;;;;;;;6.10;3.70;;;14.20;99.90;;;;;;5072400;28;20839;-63
2022/05/20 01:21:29;;;;;;;6.97;4.10;;;14.20;99.90;;;;;;5072432;28;20476;-63
2022/05/20 01:24:02;;;;;;;4.93;3.13;;;14.20;99.90;;;;;;5072375;28;20453;-62
2022/05/20 01:26:29;;;;;;;6.33;3.57;;;14.10;99.90;;;;;;5072029;28;20448;-63
2022/05/20 01:28:56;;;;;;;5.60;3.10;;;14.10;99.90;;;;;;5071889;28;20457;-65
2022/05/20 01:31:24;;;;;;;5.93;3.30;;;14.10;99.90;;;;;;5072021;28;20472;-62
2022/05/20 01:33:52;;;;;;;7.30;3.97;;;14.00;99.90;;;;;;5072200;28;20445;-63
2022/05/20 01:36:22;;;;;;;6.80;3.60;;;13.90;99.90;;;;;;5072237;28;20857;-63
2022/05/20 01:38:52;;;;;;;7.80;4.13;;;13.70;99.90;;;;;;5071292;28;20460;-62
2022/05/20 01:41:25;;;;;;;7.50;3.80;;;13.70;99.90;;;;;;5071800;28;20867;-63
2022/05/20 01:44:04;;;;;;;9.57;3.70;;;13.70;99.90;;;;;;5072032;28;20449;-63
2022/05/20 01:46:37;;;;;;;7.47;3.83;;;13.80;99.90;;;;;;5072020;28;20455;-62
2022/05/20 01:49:23;;;;;;;6.40;3.77;;;13.90;99.90;;;;;;5071160;28;20463;-62
2022/05/20 01:51:56;;;;;;;5.73;3.57;;;13.80;99.90;;;;;;5071370;28;20476;-63
2022/05/20 01:54:31;;;;;;;7.30;3.47;;;13.80;99.90;;;;;;5071847;28;20476;-62
2022/05/20 01:57:07;;;;;;;5.40;3.23;;;13.70;99.90;;;;;;5071753;28;20484;-63
2022/05/20 01:59:40;;;;;;;7.60;4.10;;;13.70;99.90;;;;;;5071586;28;20808;-64
2022/05/20 02:02:11;;;;;;;9.63;3.80;;;13.70;99.90;;;;;;5071888;28;20900;-64
2022/05/20 02:04:43;;;;;;;9.00;3.60;;;13.70;99.90;;;;;;5071287;28;20765;-62
2022/05/20 02:07:16;;;;;;;8.73;3.80;;;13.70;99.90;;;;;;5071304;28;20547;-63
2022/05/20 02:09:48;;;;;;;8.47;3.90;;;13.80;99.90;;;;;;5071639;28;20567;-61
2022/05/20 02:12:20;;;;;;;4.80;2.93;;;13.80;99.90;;;;;;5071427;28;20823;-64
2022/05/20 02:14:52;;;;;;;4.80;2.83;;;13.70;99.90;;;;;;5071141;28;20453;-63
2022/05/20 02:17:24;;;;;;;6.93;3.53;;;13.80;99.90;;;;;;5071348;28;20983;-64
2022/05/20 02:19:55;;;;;;;5.57;3.23;;;13.90;99.90;;;;;;5071178;28;20453;-62
2022/05/20 02:22:25;;;;;;;6.90;3.33;;;13.70;99.90;;;;;;5071021;28;20469;-62
2022/05/20 02:24:52;;;;;;;8.47;3.33;;;13.70;99.90;;;;;;5071197;28;20449;-62
2022/05/20 02:27:23;;;;;;;4.83;3.00;;;13.70;99.90;;;;;;5071065;28;20445;-63
2022/05/20 02:29:55;;;;;;;7.13;3.50;;;13.70;99.90;;;;;;5070808;28;20460;-63
2022/05/20 02:32:25;;;;;;;8.27;3.30;;;13.60;99.90;;;;;;5071055;28;20469;-63
2022/05/20 02:34:53;;;;;;;5.87;3.37;;;13.60;99.90;;;;;;5071035;28;20460;-62
2022/05/20 02:37:22;;;;;;;7.53;4.20;;;13.60;99.90;;;;;;5070680;28;20587;-63
2022/05/20 02:39:50;;;;;;;10.90;3.50;;;13.60;99.90;;;;;;5070802;28;20456;-62
2022/05/20 02:42:17;;;;;;;7.27;4.07;;;13.60;99.90;;;;;;5070591;28;20488;-63
2022/05/20 02:44:46;;;;;;;8.33;4.00;;;13.50;99.90;;;;;;5070412;28;21003;-62
2022/05/20 02:47:13;;;;;;;6.20;3.70;;;13.50;99.90;;;;;;5070786;28;20449;-62
2022/05/20 02:49:41;;;;;;;5.73;3.00;;;13.50;99.90;;;;;;5070768;28;20933;-61
2022/05/20 02:52:10;;;;;;;9.50;3.23;;;13.40;99.90;;;;;;5070752;28;20472;-63
2022/05/20 02:54:37;;;;;;;9.43;3.50;;;13.40;99.90;;;;;;5070619;28;20901;-62
2022/05/20 02:57:05;;;;;;;6.63;3.77;;;13.40;99.90;;;;;;5070325;28;20965;-62
2022/05/20 03:05:02;;;;;;;6.70;3.20;;;13.00;99.90;;;;;;5070453;28;20436;-63
2022/05/20 03:07:29;;;;;;;5.90;2.70;;;12.80;99.90;;;;;;5070156;28;20456;-63
2022/05/20 03:09:56;;;;;;;6.70;2.60;;;12.70;99.90;;;;;;5070233;28;20472;-63
2022/05/20 03:12:23;;;;;;;5.70;2.97;;;12.80;99.90;;;;;;5070317;28;20468;-63
2022/05/20 03:14:51;;;;;;;6.07;3.30;;;12.80;99.90;;;;;;5069974;28;20448;-62
2022/05/20 03:17:19;;;;;;;8.83;2.77;;;12.80;99.90;;;;;;5069938;28;21036;-61
2022/05/20 03:19:46;;;;;;;5.83;3.20;;;12.90;99.90;;;;;;5070047;28;20468;-62
2022/05/20 03:22:13;;;;;;;8.13;4.80;;;12.90;99.90;;;;;;5069974;28;20477;-61
2022/05/20 03:24:41;;;;;;;9.93;5.87;;;13.00;99.90;;;;;;5070037;28;20460;-62
2022/05/20 03:27:08;;;;;;;8.20;3.17;;;13.00;99.90;;;;;;5070080;28;20451;-61
2022/05/20 03:29:35;;;;;;;4.27;2.17;;;13.00;99.90;;;;;;5069923;28;20471;-63
2022/05/20 03:32:02;;;;;;;6.43;2.40;;;13.00;99.90;;;;;;5069716;28;20492;-62
2022/05/20 03:34:31;;;;;;;4.60;2.20;;;13.00;99.90;;;;;;5069924;28;20449;-63
2022/05/20 03:36:58;;;;;;;6.13;2.30;;;13.10;99.90;;;;;;5069531;28;20496;-61
2022/05/20 03:39:26;;;;;;;6.37;2.50;;;13.10;99.90;;;;;;5069441;28;20933;-64
2022/05/20 03:41:53;;;;;;;5.23;2.80;;;13.20;99.90;;;;;;5069311;28;20698;-63
2022/05/20 03:44:20;;;;;;;5.10;2.40;;;13.20;99.90;;;;;;5069589;28;20449;-63
2022/05/20 03:46:51;;;;;;;6.53;3.60;;;13.20;99.90;;;;;;5069507;28;20480;-64
2022/05/20 03:49:19;;;;;;;7.07;3.50;;;13.10;99.90;;;;;;5069679;28;20995;-64
2022/05/20 03:51:50;;;;;;;8.77;3.93;;;12.90;99.90;;;;;;5069514;28;20476;-63
2022/05/20 03:54:18;;;;;;;6.87;4.67;;;12.90;99.90;;;;;;5069871;28;20459;-63
2022/05/20 03:56:45;;;;;;;8.70;4.43;;;12.90;99.90;;;;;;5069625;28;20485;-63
2022/05/20 03:59:12;;;;;;;13.90;5.70;;;12.80;99.90;;;;;;5069165;28;20445;-66
2022/05/20 04:02:00;;;;;;;11.47;4.60;;;12.80;99.90;;;;;;5069353;28;20969;-66
2022/05/20 04:04:30;;;;;;;6.37;3.73;;;12.80;99.90;;;;;;5069588;28;20484;-68
2022/05/20 04:07:00;;;;;;;8.00;4.73;;;13.00;99.90;;;;;;5069445;28;20495;-68
2022/05/20 04:09:27;;;;;;;9.03;4.40;;;13.20;99.90;;;;;;5069407;28;20460;-66
2022/05/20 04:11:57;;;;;;;15.73;4.50;;;13.30;99.90;;;;;;5068782;28;20476;-65
2022/05/20 04:14:24;;;;;;;13.53;3.80;;;13.50;99.90;;;;;;5069461;28;20489;-69
2022/05/20 04:16:57;;;;;;;11.80;5.00;;;13.50;99.90;;;;;;5069241;28;20484;-67
2022/05/20 04:19:24;;;;;;;6.50;3.70;;;13.50;99.90;;;;;;5069220;28;20457;-67
2022/05/20 04:21:52;;;;;;;6.63;3.80;;;13.50;99.90;;;;;;5050915;28;20473;-64
2022/05/20 04:24:21;;;;;;;6.90;4.00;;;13.60;99.90;;;;;;5069206;28;20461;-64
2022/05/20 04:26:49;;;;;;;10.80;4.13;;;13.70;99.90;;;;;;5068912;28;20449;-65
2022/05/20 04:29:17;;;;;;;8.90;4.33;;;13.60;99.90;;;;;;5069333;28;20475;-63
2022/05/20 04:31:49;;;;;;;9.30;3.33;;;13.70;99.90;;;;;;5069279;28;20469;-64
2022/05/20 04:34:17;;;;;;;7.77;4.10;;;13.80;99.90;;;;;;5068706;28;20448;-67
2022/05/20 04:36:45;;;;;;;6.30;3.60;;;13.80;99.90;;;;;;5068729;28;20485;-67
2022/05/20 04:39:12;;;;;;;10.07;3.57;;;14.00;99.90;;;;;;5068901;28;20449;-65
2022/05/20 04:47:15;;;;;;;8.13;4.10;;;14.20;99.90;;;;;;5068800;28;20464;-65
2022/05/20 04:49:42;;;;;;;6.17;3.23;;;14.20;99.90;;;;;;5068765;28;20452;-64
2022/05/20 04:52:10;;;;;;;5.97;3.00;;;14.10;99.90;;;;;;5068909;28;20476;-63
2022/05/20 04:54:52;;;;;;;8.33;2.77;;;14.20;99.90;;;;;;5068941;28;20456;-61
2022/05/20 04:57:30;;;;;;;5.70;2.77;;;14.20;99.90;;;;;;5068329;28;20484;-64
2022/05/20 05:00:00;;;;;;;4.87;2.97;;;14.20;99.90;;;;;;5068679;28;20448;-60
2022/05/20 05:02:28;;;;;;;4.50;2.70;;;14.40;99.90;;;;;;5068695;28;20475;-62
2022/05/20 05:04:55;;;;;;;4.40;2.30;;;14.40;99.90;;;;;;5068817;28;20526;-62
2022/05/20 05:07:22;;;;;;;6.20;2.50;;;14.50;99.90;;;;;;5068472;28;20441;-67
2022/05/20 05:09:50;;;;;;;6.13;2.90;;;14.60;99.90;;;;;;5068762;28;20791;-64
2022/05/20 05:12:17;;;;;;;4.93;2.67;;;14.80;99.90;;;;;;5068589;28;20469;-66
2022/05/20 05:14:48;;;;;;;6.63;2.90;;;15.00;99.90;;;;;;5068663;28;20464;-67
2022/05/20 05:18:09;;;;;;;5.83;3.10;;;15.10;99.90;;;;;;5068598;28;20829;-64
2022/05/20 05:20:07;;;;;;;5.13;2.87;;;15.10;99.90;;;;;;5068148;28;20453;-68
2022/05/20 05:22:34;;;;;;;7.80;3.30;;;15.30;99.90;;;;;;5068226;28;20473;-69
2022/05/20 05:25:01;;;;;;;5.13;2.73;;;15.40;99.90;;;;;;5072459;28;20456;-65
2022/05/20 05:27:28;;;;;;;5.90;3.07;;;15.50;99.90;;;;;;5072105;28;20460;-66
2022/05/20 05:29:57;;;;;;;7.23;3.83;;;15.70;99.90;;;;;;5071815;28;20963;-67
2022/05/20 05:32:24;;;;;;;6.60;3.47;;;15.80;99.90;;;;;;5072202;28;20473;-66
2022/05/20 05:34:51;;;;;;;7.00;3.67;;;15.80;99.90;;;;;;5071675;28;20475;-64
2022/05/20 05:37:18;;;;;;;8.03;3.60;;;15.70;99.90;;;;;;5071606;28;20567;-66
2022/05/20 05:39:45;;;;;;;6.27;3.63;;;15.60;99.90;;;;;;5072080;28;20564;-65
2022/05/20 05:42:12;;;;;;;7.73;3.67;;;15.70;99.90;;;;;;5071399;28;20986;-64
2022/05/20 05:44:39;;;;;;;8.60;3.70;;;15.90;99.90;;;;;;5072221;28;20880;-67
2022/05/20 05:47:07;;;;;;;9.80;4.53;;;16.10;99.90;;;;;;5072022;28;20449;-66
2022/05/20 05:49:35;;;;;;;6.17;3.50;;;16.30;99.90;;;;;;5071386;28;20453;-65
2022/05/20 05:52:02;;;;;;;9.10;4.03;;;16.60;99.90;;;;;;5071553;28;20480;-65
2022/05/20 05:54:30;;;;;;;6.30;3.37;;;16.70;99.90;;;;;;5071991;28;20449;-67
2022/05/20 05:56:57;;;;;;;9.70;3.80;;;16.90;99.90;;;;;;5071584;28;20995;-64
2022/05/20 05:59:24;;;;;;;10.93;3.60;;;16.90;99.90;;;;;;5071482;28;20453;-65
2022/05/20 06:01:51;;;;;;;7.47;4.07;;;17.00;99.90;;;;;;5071339;28;20480;-67
2022/05/20 06:04:19;;;;;;;8.67;3.97;;;17.20;99.90;;;;;;5071111;28;20449;-67
2022/05/20 06:06:46;;;;;;;6.07;3.50;;;17.40;99.90;;;;;;5071468;28;20824;-67
2022/05/20 06:09:13;;;;;;;7.93;4.33;;;17.60;99.90;;;;;;5071423;28;20456;-67
2022/05/20 06:11:41;;;;;;;7.13;3.37;;;17.80;99.00;;;;;;5071559;28;20477;-66
2022/05/20 06:14:08;;;;;;;6.40;3.70;;;18.00;98.10;;;;;;5071497;28;20564;-66
2022/05/20 06:16:35;;;;;;;5.60;3.00;;;18.10;98.20;;;;;;5071370;28;20578;-65
2022/05/20 06:19:02;;;;;;;9.97;3.30;;;18.30;97.50;;;;;;5071270;28;20513;-62
2022/05/20 06:21:30;;;;;;;8.00;3.70;;;18.50;97.40;;;;;;5071169;28;20826;-63
2022/05/20 06:24:00;;;;;;;6.93;3.80;;;18.80;96.20;;;;;;5071523;28;20777;-65
2022/05/20 06:26:28;;;;;;;9.63;3.77;;;18.90;95.20;;;;;;5071188;28;20456;-66
2022/05/20 06:28:55;;;;;;;10.83;6.03;;;19.10;94.80;;;;;;5070951;28;20445;-65
2022/05/20 06:31:22;;;;;;;7.00;4.30;;;19.30;94.00;;;;;;5071016;28;20465;-62
2022/05/20 06:33:49;;;;;;;6.53;3.77;;;19.40;93.10;;;;;;5070577;28;20448;-62
2022/05/20 06:41:47;;;;;;;6.50;4.60;;;19.20;92.60;;;;;;5070153;28;21015;-66
2022/05/20 06:44:14;;;;;;;12.10;4.17;;;19.30;92.60;;;;;;5070949;28;20445;-62
2022/05/20 06:46:41;;;;;;;9.03;4.13;;;19.50;92.40;;;;;;5070946;28;20449;-64
2022/05/20 06:49:09;;;;;;;9.67;4.20;;;19.70;92.30;;;;;;5070455;28;20453;-65
2022/05/20 06:51:38;;;;;;;12.13;5.10;;;19.80;92.30;;;;;;5070298;28;20468;-64
2022/05/20 06:54:08;;;;;;;12.87;5.60;;;19.70;92.20;;;;;;5070497;28;20471;-63
2022/05/20 06:56:36;;;;;;;12.57;5.40;;;19.80;92.40;;;;;;5070410;28;20444;-62
2022/05/20 06:59:06;;;;;;;10.00;4.93;;;20.10;92.10;;;;;;5070137;28;20520;-65
2022/05/20 07:01:33;;;;;;;9.63;5.90;;;20.30;91.50;;;;;;5070322;28;20472;-63
2022/05/20 07:04:00;;;;;;;10.80;5.73;;;20.50;90.70;;;;;;5070271;28;20781;-63
2022/05/20 07:06:30;;;;;;;10.27;5.67;;;20.60;89.70;;;;;;5070780;28;20515;-66
2022/05/20 07:08:57;;;;;;;13.83;5.97;;;20.80;90.00;;;;;;5069955;28;20456;-65
2022/05/20 07:11:26;;;;;;;14.10;5.90;;;21.00;90.00;;;;;;5069759;28;20477;-63
2022/05/20 07:13:56;;;;;;;10.17;6.70;;;21.10;87.50;;;;;;5070240;28;20452;-64
2022/05/20 07:16:24;;;;;;;13.30;7.73;;;21.30;87.20;;;;;;5070209;28;20517;-65
2022/05/20 07:18:51;;;;;;;14.33;7.00;;;21.40;87.00;;;;;;5069948;28;20568;-64
2022/05/20 07:21:18;;;;;;;12.97;7.73;;;21.40;87.30;;;;;;5069938;28;20510;-63
2022/05/20 07:23:45;;;;;;;13.50;7.50;;;21.40;87.40;;;;;;5070139;28;20456;-63
2022/05/20 07:26:13;;;;;;;11.10;7.90;;;21.60;84.60;;;;;;5069794;28;20459;-65
2022/05/20 07:28:41;;;;;;;12.23;7.03;;;21.50;83.10;;;;;;5069798;28;20453;-65
2022/05/20 07:31:09;;;;;;;10.37;7.27;;;21.40;83.50;;;;;;5069872;28;20483;-62
2022/05/20 07:33:37;;;;;;;13.30;8.80;;;21.60;84.40;;;;;;5069817;28;20452;-64
2022/05/20 07:36:04;;;;;;;11.73;8.43;;;21.80;85.10;;;;;;5069622;28;21022;-63
2022/05/20 07:38:31;;;;;;;11.13;7.13;;;21.80;83.40;;;;;;5069315;28;20821;-69
2022/05/20 07:41:00;;;;;;;12.13;8.03;;;21.90;84.10;;;;;;5068808;28;20993;-61
2022/05/20 07:43:27;;;;;;;14.43;8.50;;;22.20;81.70;;;;;;5069878;28;20452;-64
2022/05/20 07:45:56;;;;;;;17.90;8.80;;;22.40;82.20;;;;;;5069161;28;20448;-63
2022/05/20 07:48:23;;;;;;;13.47;8.60;;;22.30;82.60;;;;;;5069560;28;20472;-64
2022/05/20 07:50:54;;;;;;;15.90;9.57;;;22.40;80.30;;;;;;5069099;28;21004;-63
2022/05/20 07:53:32;;;;;;;12.60;9.47;;;22.60;79.00;;;;;;5069728;28;20449;-62
2022/05/20 07:56:02;;;;;;;12.80;7.97;;;22.70;76.60;;;;;;5069790;28;20853;-64
2022/05/20 07:58:32;;;;;;;12.60;8.57;;;22.70;77.50;;;;;;5069564;28;20491;-65
2022/05/20 08:01:03;;;;;;;9.93;6.67;;;22.90;78.80;;;;;;5069149;28;20469;-63
2022/05/20 08:06:18;;;;;;;9.40;6.17;;;23.10;76.30;;;;;;5069133;28;20482;-64
2022/05/20 08:08:45;;;;;;;10.10;5.30;;;23.00;71.50;;;;;;5069520;28;20535;-65
2022/05/20 08:11:12;;;;;;;11.47;5.53;;;23.10;71.40;;;;;;5069117;28;20472;-64
2022/05/20 08:13:39;;;;;;;7.20;4.77;;;23.20;69.00;;;;;;5069381;28;20449;-66
2022/05/20 08:16:07;;;;;;;8.80;5.20;;;23.40;66.40;;;;;;5069630;28;20458;-66
2022/05/20 08:18:35;;;;;;;7.97;4.83;;;23.60;66.60;;;;;;5069229;28;20501;-64
2022/05/20 08:21:02;;;;;;;10.57;5.80;;;23.70;65.70;;;;;;5056121;28;20505;-65
2022/05/20 08:23:29;;;;;;;7.87;5.10;;;23.70;64.30;;;;;;5049461;28;20454;-68
2022/05/20 08:25:56;;;;;;;7.00;4.90;;;23.90;61.30;;;;;;5049390;28;20454;-67
2022/05/20 08:28:23;;;;;;;11.70;6.17;;;23.90;60.20;;;;;;5049199;28;20477;-67
2022/05/20 08:30:50;;;;;;;13.30;5.67;;;24.10;58.80;;;;;;5049038;28;21052;-66
2022/05/20 08:33:18;;;;;;;11.90;5.43;;;24.10;59.40;;;;;;5049345;28;20465;-66
2022/05/20 08:35:45;;;;;;;10.37;4.33;;;24.20;58.60;;;;;;5048829;28;20561;-67
2022/05/20 08:38:13;;;;;;;7.97;4.63;;;24.30;57.00;;;;;;5048760;28;20485;-66
2022/05/20 08:40:44;;;;;;;15.80;4.50;;;24.00;56.00;;;;;;5048598;28;20465;-67
2022/05/20 08:43:13;;;;;;;8.70;4.73;;;24.00;55.60;;;;;;5049074;28;20457;-66
2022/05/20 08:45:40;;;;;;;9.33;4.00;;;24.10;56.90;;;;;;5049292;28;20463;-65
2022/05/20 08:48:10;;;;;;;6.97;3.83;;;24.30;56.60;;;;;;5049230;28;20456;-67
2022/05/20 08:50:42;;;;;;;7.10;3.73;;;24.30;54.30;;;;;;5048967;28;20485;-67
2022/05/20 08:53:13;;;;;;;5.63;3.47;;;24.50;54.70;;;;;;5048726;28;20445;-66
2022/05/20 08:55:43;;;;;;;5.87;3.10;;;24.70;54.20;;;;;;5048860;28;20966;-66
2022/05/20 08:58:13;;;;;;;7.10;4.43;;;24.90;54.60;;;;;;5051065;28;20522;-66
2022/05/20 09:00:40;;;;;;;7.07;3.73;;;25.00;54.80;;;;;;5052696;28;20530;-66
2022/05/20 09:03:08;;;;;;;6.10;3.00;;;25.00;53.50;;;;;;5052326;28;20523;-66
2022/05/20 09:05:39;;;;;;;7.43;3.03;;;25.10;51.50;;;;;;5052564;28;20453;-67
2022/05/20 09:08:09;;;;;;;5.33;2.90;;;25.20;52.60;;;;;;5052574;28;20477;-68
2022/05/20 09:10:42;;;;;;;6.63;2.73;;;25.50;52.10;;;;;;5052431;28;20460;-67
2022/05/20 09:13:13;;;;;;;7.13;2.77;;;25.50;51.20;;;;;;5052778;28;20460;-66
2022/05/20 09:15:43;;;;;;;9.10;3.27;;;25.60;51.40;;;;;;5052254;28;20457;-67
2022/05/20 09:18:17;;;;;;;6.63;2.67;;;25.70;49.50;;;;;;5052315;28;20484;-67
2022/05/20 09:20:47;;;;;;;13.90;4.40;;;25.80;50.00;;;;;;5052491;28;20450;-69
2022/05/20 09:23:20;;;;;;;8.77;4.27;;;25.90;49.60;;;;;;5052183;28;20461;-67
2022/05/20 09:25:55;;;;;;;8.50;3.20;;;25.90;48.80;;;;;;5052725;28;20871;-65
2022/05/20 09:28:30;;;;;;;6.57;3.13;;;26.10;48.50;;;;;;5052332;28;20465;-65
2022/05/20 09:31:13;;;;;;;5.13;2.40;;;26.20;47.70;;;;;;5051845;28;20476;-65
2022/05/20 09:33:41;;;;;;;6.47;2.90;;;26.20;44.40;;;;;;5052274;28;20547;-67
2022/05/20 09:36:10;;;;;;;10.10;3.20;;;26.30;43.40;;;;;;5052291;28;20461;-65
2022/05/20 09:38:40;;;;;;;5.70;2.03;;;26.40;42.40;;;;;;5051692;28;20838;-64
2022/05/20 09:41:16;;;;;;;17.97;3.03;;;26.30;42.30;;;;;;5051455;28;20489;-63
2022/05/20 09:43:45;;;;;;;6.53;2.30;;;26.40;43.40;;;;;;5051917;28;20446;-64
2022/05/20 09:46:31;;;;;;;4.70;2.20;;;26.50;42.50;;;;;;5051509;28;20446;-62
2022/05/20 09:49:04;;;;;;;7.03;2.80;;;26.70;43.00;;;;;;5051855;28;20449;-64
2022/05/20 09:51:38;;;;;;;7.60;3.20;;;26.80;44.30;;;;;;5051762;28;20871;-64
2022/05/20 09:54:16;;;;;;;4.47;2.27;;;26.80;44.00;;;;;;5051619;28;20982;-62
2022/05/20 09:56:47;;;;;;;12.20;3.57;;;26.90;41.60;;;;;;5051956;28;20449;-63
2022/05/20 09:59:25;;;;;;;14.10;2.90;;;27.00;43.10;;;;;;5051769;28;20493;-63
2022/05/20 10:02:00;;;;;;;5.27;2.17;;;27.20;43.30;;;;;;5051327;28;20528;-62
2022/05/20 10:04:52;;;;;;;5.13;2.30;;;27.50;41.00;;;;;;5051635;28;20452;-64
2022/05/20 10:07:55;;;;;;;7.80;2.43;;;27.60;41.40;;;;;;5051541;28;20951;-63
2022/05/20 10:10:33;;;;;;;4.63;1.70;;;27.60;39.60;;;;;;5037997;28;20457;-64
2022/05/20 10:13:03;;;;;;;5.73;1.97;;;27.80;40.90;;;;;;5051358;28;20461;-64
2022/05/20 10:15:34;;;;;;;6.10;2.20;;;28.00;41.50;;;;;;5051308;28;20457;-64
2022/05/20 10:18:14;;;;;;;5.30;2.40;;;28.00;40.30;;;;;;5051345;28;20454;-64
2022/05/20 10:20:47;;;;;;;5.80;2.10;;;28.10;40.10;;;;;;5051228;28;20461;-65
2022/05/20 10:23:24;;;;;;;3.80;1.83;;;28.20;40.40;;;;;;5051265;28;20457;-64
2022/05/20 10:25:57;;;;;;;4.63;2.13;;;28.20;38.50;;;;;;5051537;28;20449;-65
2022/05/20 10:34:07;;;;;;;4.43;1.70;;;28.70;39.10;;;;;;5051069;28;20499;-65
2022/05/20 10:36:41;;;;;;;4.97;2.67;;;29.00;37.10;;;;;;5050950;28;20457;-65
2022/05/20 10:39:23;;;;;;;5.50;2.40;;;28.90;36.50;;;;;;5050128;28;20822;-65
2022/05/20 10:42:12;;;;;;;5.80;2.33;;;28.70;37.00;;;;;;5050622;28;21008;-64
2022/05/20 10:50:56;;;;;;;3.93;1.20;;;29.40;35.40;;;;;;5050866;28;20537;-65
2022/05/20 10:53:37;;;;;;;4.43;1.70;;;29.40;32.20;;;;;;5050612;28;20548;-64
2022/05/20 10:56:25;;;;;;;3.93;1.70;;;29.30;33.20;;;;;;5050423;28;20845;-64
2022/05/20 10:59:03;;;;;;;4.60;1.70;;;29.30;32.70;;;;;;5050526;28;20576;-64
2022/05/20 11:01:41;;;;;;;4.57;2.17;;;29.50;32.40;;;;;;5050390;28;20470;-63
2022/05/20 11:04:44;;;;;;;6.07;1.93;;;29.30;30.70;;;;;;5050466;28;20843;-63
2022/05/20 11:07:53;;;;;;;6.10;1.70;;;29.30;31.00;;;;;;5050442;28;20453;-64
2022/05/20 11:10:36;;;;;;;6.87;1.90;;;29.70;30.90;;;;;;5049705;28;20450;-64
2022/05/20 11:13:13;;;;;;;4.30;1.60;;;29.60;30.70;;;;;;5050436;28;20453;-64
2022/05/20 11:15:59;;;;;;;6.30;1.80;;;29.60;30.60;;;;;;5050361;28;20453;-64
2022/05/20 11:18:48;;;;;;;5.47;1.43;;;29.60;31.60;;;;;;5050174;28;20492;-64
2022/05/20 11:21:48;;;;;;;4.63;1.90;;;29.70;29.40;;;;;;5049091;28;20556;-65
2022/05/20 11:24:42;;;;;;;5.53;1.80;;;29.90;29.70;;;;;;5050130;28;20966;-64
2022/05/20 11:27:24;;;;;;;4.63;2.30;;;30.10;29.80;;;;;;5049909;28;20449;-64
2022/05/20 11:30:13;;;;;;;4.00;1.80;;;29.90;28.70;;;;;;5049481;28;20907;-65
2022/05/20 11:32:55;;;;;;;6.20;2.00;;;29.60;29.00;;;;;;5049940;28;20466;-64
2022/05/20 11:35:35;;;;;;;4.90;1.90;;;29.60;28.90;;;;;;5049504;28;20458;-64
2022/05/20 11:38:38;;;;;;;5.00;1.40;;;29.80;30.50;;;;;;5049181;28;20449;-66
2022/05/20 11:41:25;;;;;;;5.30;1.97;;;30.10;30.40;;;;;;5037155;28;20493;-65
2022/05/20 11:44:16;;;;;;;4.03;1.60;;;30.30;30.30;;;;;;5049800;28;20453;-67
2022/05/20 11:47:03;;;;;;;4.90;1.53;;;30.40;29.70;;;;;;5049820;28;20450;-67
2022/05/20 11:49:41;;;;;;;8.93;1.77;;;30.40;28.80;;;;;;5049744;28;20450;-67
2022/05/20 11:52:25;;;;;;;3.90;1.33;;;30.50;29.30;;;;;;5049418;28;20473;-67
2022/05/20 11:54:56;;;;;;;4.47;1.47;;;30.80;29.10;;;;;;5049543;28;20446;-69
2022/05/20 11:57:28;;;;;;;4.63;1.20;;;30.60;27.30;;;;;;5049669;28;20449;-67
2022/05/20 12:00:02;;;;;;;4.20;1.50;;;30.20;27.50;;;;;;5049453;28;20496;-70
2022/05/20 12:02:34;;;;;;;5.93;2.40;;;30.20;28.30;;;;;;5048953;28;20482;-69
2022/05/20 12:05:02;;;;;;;4.20;1.43;;;30.20;29.10;;;;;;5049284;28;20529;-66
2022/05/20 12:07:30;;;;;;;5.03;2.03;;;30.50;29.30;;;;;;5049405;28;20445;-65
2022/05/20 12:09:58;;;;;;;4.33;1.57;;;30.90;29.50;;;;;;5049423;28;20461;-65
2022/05/20 12:12:27;;;;;;;4.03;1.73;;;31.10;28.90;;;;;;5049453;28;20609;-65
2022/05/20 12:15:23;;;;;;;4.07;1.40;;;31.40;29.00;;;;;;5049369;28;20445;-65
2022/05/20 12:17:53;;;;;;;7.20;1.53;;;31.50;29.20;;;;;;5046411;28;20803;-66
2022/05/20 12:26:39;;;;;;;3.80;1.50;;;31.60;27.40;;;;;;5048983;28;20471;-66
2022/05/20 12:29:39;;;;;;;5.07;1.40;;;31.80;27.10;;;;;;5048830;28;20438;-65
2022/05/20 12:32:25;;;;;;;3.97;1.33;;;31.70;27.00;;;;;;5049746;28;20496;-65
2022/05/20 12:35:04;;;;;;;4.60;1.57;;;31.80;27.90;;;;;;5053226;28;20445;-65
2022/05/20 12:37:55;;;;;;;5.63;1.33;;;31.70;26.00;;;;;;5053116;28;20449;-67
2022/05/20 12:40:51;;;;;;;5.20;1.37;;;31.30;25.60;;;;;;5053080;28;20497;-65
2022/05/20 12:43:19;;;;;;;5.37;1.50;;;31.40;28.40;;;;;;5052965;28;20454;-68
2022/05/20 12:45:52;;;;;;;4.10;1.57;;;31.70;26.70;;;;;;5053237;28;20457;-63
2022/05/20 12:48:24;;;;;;;6.40;1.40;;;31.80;28.20;;;;;;5053172;28;20553;-63
2022/05/20 12:51:01;;;;;;;7.30;1.80;;;32.10;26.90;;;;;;5052876;28;20465;-64
2022/05/20 12:53:30;;;;;;;4.10;1.70;;;31.90;26.00;;;;;;5052958;28;20461;-66
2022/05/20 12:55:58;;;;;;;5.07;1.37;;;32.00;26.90;;;;;;5052915;28;20889;-62
2022/05/20 12:58:28;;;;;;;4.47;1.40;;;32.40;28.70;;;;;;5052841;28;20457;-63
2022/05/20 13:00:59;;;;;;;3.73;1.17;;;32.60;27.40;;;;;;5052741;28;20474;-64
2022/05/20 13:03:31;;;;;;;5.50;1.70;;;32.60;27.20;;;;;;5052598;28;20450;-65
2022/05/20 13:06:02;;;;;;;5.03;1.20;;;32.70;27.30;;;;;;5052153;28;20450;-62
2022/05/20 13:08:32;;;;;;;4.27;1.40;;;32.60;27.20;;;;;;5052629;28;20825;-63
2022/05/20 13:11:07;;;;;;;5.20;1.40;;;32.50;26.70;;;;;;5052622;28;20465;-65
2022/05/20 13:13:35;;;;;;;3.87;1.40;;;32.50;26.60;;;;;;5052256;28;20488;-65
2022/05/20 13:16:04;;;;;;;4.70;1.30;;;32.50;25.20;;;;;;5051793;28;20454;-69
2022/05/20 13:18:33;;;;;;;3.80;1.40;;;32.40;25.80;;;;;;5052587;28;20834;-68
2022/05/20 13:21:04;;;;;;;5.53;1.20;;;32.50;26.00;;;;;;5052304;28;20470;-64
2022/05/20 13:23:33;;;;;;;3.87;1.10;;;32.40;29.00;;;;;;5052730;28;20544;-66
2022/05/20 13:26:00;;;;;;;4.90;1.17;;;32.70;27.40;;;;;;5052277;28;20790;-65
2022/05/20 13:28:30;;;;;;;5.20;1.20;;;33.20;27.10;;;;;;5052167;28;20450;-65
2022/05/20 13:31:02;;;;;;;4.50;1.13;;;33.60;26.80;;;;;;5051484;28;20462;-63
2022/05/20 13:33:29;;;;;;;6.37;1.60;;;33.60;25.00;;;;;;5051279;28;20457;-66
2022/05/20 13:35:56;;;;;;;8.70;1.40;;;33.50;26.30;;;;;;5051423;28;20484;-65
2022/05/20 13:38:28;;;;;;;5.60;1.83;;;33.80;25.70;;;;;;5050826;28;20489;-66
2022/05/20 13:40:55;;;;;;;11.70;1.70;;;34.10;26.90;;;;;;5051583;28;20497;-66
2022/05/20 13:43:28;;;;;;;5.03;1.80;;;34.50;26.90;;;;;;5050823;28;20458;-68
2022/05/20 13:51:34;;;;;;;6.30;1.50;;;35.10;27.70;;;;;;5048761;28;20237;-67